Time;durP1;ratioP1;P1;durP2;ratioP2;P2;SDS_P1;SDS_P2;PMS_P1;PMS_P2;Temp;Humidity;BMP_temperature;BMP_pressure;BME280_temperature;BME280_humidity;BME280_pressure;Samples;Min_cycle;Max_cycle;Signal;HPM_P1;HPM_P2
2021/06/18 00:00:55;;;;;;;34.72;30.42;;;20.80;99.90;;;;;;5056101;28;20470;-88
2021/06/18 00:03:20;;;;;;;33.35;28.92;;;20.90;99.90;;;;;;5057397;28;20032;-88
2021/06/18 00:05:46;;;;;;;31.02;27.83;;;20.90;99.90;;;;;;5056124;28;20032;-89
2021/06/18 00:08:12;;;;;;;31.42;28.17;;;20.90;99.90;;;;;;5056208;28;20071;-89
2021/06/18 00:10:39;;;;;;;33.42;29.33;;;20.90;99.90;;;;;;5056193;28;20025;-89
2021/06/18 00:13:05;;;;;;;34.15;30.58;;;20.90;99.90;;;;;;5057003;28;20029;-89
2021/06/18 00:15:31;;;;;;;34.83;28.92;;;20.90;99.90;;;;;;5055959;28;20474;-89
2021/06/18 00:17:56;;;;;;;31.65;28.27;;;21.00;99.90;;;;;;5058260;28;20029;-89
2021/06/18 00:20:22;;;;;;;32.92;28.38;;;21.00;99.90;;;;;;5055888;28;20033;-89
2021/06/18 00:22:48;;;;;;;31.42;27.75;;;21.00;99.90;;;;;;5055659;28;20025;-88
2021/06/18 00:25:14;;;;;;;32.28;28.85;;;21.00;99.90;;;;;;5055747;28;20025;-89
2021/06/18 00:27:40;;;;;;;34.58;30.73;;;21.00;99.90;;;;;;5056697;28;20498;-88
2021/06/18 00:30:08;;;;;;;36.38;30.75;;;21.00;99.90;;;;;;5055580;28;20104;-89
2021/06/18 00:32:34;;;;;;;41.30;33.42;;;21.00;99.90;;;;;;5055065;28;20418;-88
2021/06/18 00:35:00;;;;;;;38.25;33.80;;;21.00;99.90;;;;;;5056566;28;20028;-88
2021/06/18 00:37:25;;;;;;;47.47;38.42;;;21.00;99.90;;;;;;5054672;28;20021;-87
2021/06/18 00:39:51;;;;;;;51.17;41.08;;;21.00;99.90;;;;;;5056117;28;20021;-86
2021/06/18 00:42:17;;;;;;;64.72;48.55;;;21.00;99.90;;;;;;5056446;28;20021;-86
2021/06/18 00:44:42;;;;;;;55.08;43.75;;;21.00;99.90;;;;;;5059196;28;20029;-86
2021/06/18 00:47:17;;;;;;;57.33;44.42;;;20.90;99.90;;;;;;5059072;28;20028;-87
2021/06/18 00:49:43;;;;;;;47.20;39.85;;;20.90;99.90;;;;;;5058123;28;20029;-88
2021/06/18 00:52:09;;;;;;;45.00;39.25;;;20.70;99.90;;;;;;5055919;28;20017;-88
2021/06/18 00:54:38;;;;;;;42.83;36.25;;;20.70;99.90;;;;;;5056496;28;20504;-88
2021/06/18 00:57:04;;;;;;;45.63;36.92;;;20.60;99.90;;;;;;5056135;28;20396;-88
2021/06/18 00:59:29;;;;;;;44.80;37.88;;;20.60;99.90;;;;;;5055892;28;20386;-89
2021/06/18 01:01:55;;;;;;;44.00;37.70;;;20.60;99.90;;;;;;5056301;28;20021;-89
2021/06/18 01:04:24;;;;;;;47.97;40.40;;;20.70;99.90;;;;;;5054908;28;20028;-89
2021/06/18 01:06:57;;;;;;;45.38;38.72;;;20.60;99.90;;;;;;5055228;28;20773;-88
2021/06/18 01:09:23;;;;;;;44.35;37.42;;;20.70;99.90;;;;;;5055167;28;20094;-88
2021/06/18 01:11:59;;;;;;;46.83;39.75;;;20.70;99.90;;;;;;5055033;28;20084;-88
2021/06/18 01:14:27;;;;;;;49.80;39.75;;;20.70;99.90;;;;;;5055088;28;20125;-88
2021/06/18 01:17:16;;;;;;;45.17;40.03;;;20.70;99.90;;;;;;5056190;28;20211;-88
2021/06/18 01:19:52;;;;;;;50.38;42.13;;;20.70;99.90;;;;;;5044471;28;20048;-88
2021/06/18 01:22:21;;;;;;;52.13;44.15;;;20.70;99.90;;;;;;5054870;28;20036;-88
2021/06/18 01:25:15;;;;;;;48.83;41.30;;;20.70;99.90;;;;;;5054816;28;20025;-89
2021/06/18 01:27:50;;;;;;;45.58;39.15;;;20.70;99.90;;;;;;5045182;28;20036;-87
2021/06/18 01:30:22;;;;;;;46.67;40.45;;;20.70;99.90;;;;;;5054519;28;20112;-88
2021/06/18 01:32:53;;;;;;;49.28;40.72;;;20.70;99.90;;;;;;5058311;28;20508;-88
2021/06/18 01:35:20;;;;;;;47.70;41.15;;;20.60;99.90;;;;;;5055543;28;20029;-88
2021/06/18 01:37:54;;;;;;;48.33;42.97;;;20.60;99.90;;;;;;5054389;28;20008;-87
2021/06/18 01:40:22;;;;;;;49.63;43.35;;;20.60;99.90;;;;;;5055987;28;20060;-89
2021/06/18 01:42:50;;;;;;;54.83;44.85;;;20.50;99.90;;;;;;5054201;28;20374;-88
2021/06/18 01:45:18;;;;;;;55.83;45.88;;;20.60;99.90;;;;;;5054765;28;20005;-89
2021/06/18 01:47:46;;;;;;;51.92;44.85;;;20.60;99.90;;;;;;5053002;28;20052;-88
2021/06/18 01:50:14;;;;;;;52.00;41.92;;;20.60;99.90;;;;;;5054372;28;20032;-87
2021/06/18 01:52:43;;;;;;;49.40;43.50;;;20.60;99.90;;;;;;5054095;28;20048;-87
2021/06/18 01:55:11;;;;;;;58.78;47.38;;;20.60;99.90;;;;;;5054570;28;20386;-87
2021/06/18 01:57:39;;;;;;;51.50;43.38;;;20.80;99.90;;;;;;5054673;28;20017;-86
2021/06/18 02:00:07;;;;;;;55.80;45.60;;;20.80;99.90;;;;;;5055298;28;20534;-85
2021/06/18 02:02:34;;;;;;;56.85;46.28;;;20.60;99.90;;;;;;5056026;28;20032;-88
2021/06/18 02:05:03;;;;;;;50.05;41.58;;;20.60;99.90;;;;;;5054912;28;20025;-88
2021/06/18 02:07:29;;;;;;;46.85;40.33;;;20.50;99.90;;;;;;5054851;28;20028;-88
2021/06/18 02:09:59;;;;;;;50.10;39.70;;;20.50;99.90;;;;;;5056385;28;20028;-87
2021/06/18 02:12:25;;;;;;;49.67;41.75;;;20.40;99.90;;;;;;5054862;28;20021;-87
2021/06/18 02:14:51;;;;;;;51.28;43.80;;;20.20;99.90;;;;;;5054537;28;20055;-88
2021/06/18 02:17:18;;;;;;;48.70;43.10;;;20.20;99.90;;;;;;5054241;28;20029;-88
2021/06/18 02:19:47;;;;;;;59.17;45.63;;;20.10;99.90;;;;;;5053877;28;20083;-88
2021/06/18 02:22:14;;;;;;;57.95;48.70;;;20.10;99.90;;;;;;5055363;28;20044;-88
2021/06/18 02:24:41;;;;;;;58.83;49.17;;;20.00;99.90;;;;;;5055419;28;20037;-88
2021/06/18 02:27:11;;;;;;;59.90;47.15;;;20.10;99.90;;;;;;5054200;28;20136;-88
2021/06/18 02:29:37;;;;;;;60.08;50.17;;;20.10;99.90;;;;;;5055425;28;20025;-88
2021/06/18 02:32:06;;;;;;;58.22;48.92;;;20.10;99.90;;;;;;5053539;28;20535;-89
2021/06/18 02:34:34;;;;;;;59.05;48.75;;;20.10;99.90;;;;;;5053211;28;20016;-89
2021/06/18 02:37:01;;;;;;;62.45;52.03;;;20.10;99.90;;;;;;5053084;28;20416;-89
2021/06/18 02:39:27;;;;;;;61.63;51.17;;;20.10;99.90;;;;;;5054870;28;20021;-88
2021/06/18 02:41:52;;;;;;;65.47;52.35;;;20.00;99.90;;;;;;5057128;28;20044;-89
2021/06/18 02:44:18;;;;;;;66.50;53.30;;;20.00;99.90;;;;;;5055379;28;20525;-89
2021/06/18 02:46:53;;;;;;;72.85;54.15;;;19.90;99.90;;;;;;5054559;28;20048;-89
2021/06/18 02:49:29;;;;;;;72.13;56.17;;;20.00;99.90;;;;;;5056179;28;20382;-88
2021/06/18 02:52:05;;;;;;;69.80;55.25;;;19.90;99.90;;;;;;5055590;28;20095;-88
2021/06/18 02:54:50;;;;;;;63.13;50.80;;;20.00;99.90;;;;;;5054205;28;20029;-88
2021/06/18 02:57:27;;;;;;;62.22;49.38;;;20.00;99.90;;;;;;5053582;28;20048;-88
2021/06/18 03:00:10;;;;;;;61.00;48.63;;;20.00;99.90;;;;;;5056162;28;20095;-88
2021/06/18 03:02:44;;;;;;;61.55;47.30;;;20.10;99.90;;;;;;5056790;28;20025;-89
2021/06/18 03:05:14;;;;;;;57.80;46.15;;;20.10;99.90;;;;;;5059454;28;20021;-88
2021/06/18 03:07:49;;;;;;;45.25;39.13;;;20.10;99.90;;;;;;5068451;28;20009;-89
2021/06/18 03:10:17;;;;;;;50.28;40.85;;;20.20;99.90;;;;;;5078010;28;20040;-89
2021/06/18 03:12:45;;;;;;;45.60;37.20;;;20.10;99.90;;;;;;5074133;28;20441;-89
2021/06/18 03:15:12;;;;;;;54.05;44.50;;;20.10;99.90;;;;;;5073579;28;20032;-90
2021/06/18 03:17:42;;;;;;;46.88;41.45;;;20.20;99.90;;;;;;5065263;28;20025;-88
2021/06/18 03:20:14;;;;;;;47.78;40.90;;;20.20;99.90;;;;;;5057665;28;20393;-88
2021/06/18 03:22:41;;;;;;;48.10;41.60;;;20.20;99.90;;;;;;5058419;28;20033;-88
2021/06/18 03:25:08;;;;;;;46.90;41.58;;;20.10;99.90;;;;;;5058118;28;20025;-88
2021/06/18 03:27:36;;;;;;;52.35;42.22;;;20.10;99.90;;;;;;5057688;28;20094;-88
2021/06/18 03:30:04;;;;;;;48.10;39.75;;;20.10;99.90;;;;;;5058940;28;20493;-89
2021/06/18 03:32:31;;;;;;;51.08;43.05;;;20.10;99.90;;;;;;5039879;28;20048;-89
2021/06/18 03:34:56;;;;;;;50.45;43.75;;;20.20;99.90;;;;;;5061086;28;20074;-89
2021/06/18 03:37:24;;;;;;;53.05;44.40;;;20.20;99.90;;;;;;5057700;28;20049;-89
2021/06/18 03:39:50;;;;;;;48.15;41.70;;;20.20;99.90;;;;;;5056624;28;20029;-88
2021/06/18 03:42:16;;;;;;;47.97;40.80;;;20.20;99.90;;;;;;5056686;28;20016;-89
2021/06/18 03:44:42;;;;;;;51.70;45.40;;;20.20;99.90;;;;;;5056594;28;20032;-89
2021/06/18 03:47:09;;;;;;;56.63;46.58;;;20.30;99.90;;;;;;5056237;28;20028;-87
2021/06/18 03:49:36;;;;;;;54.63;44.97;;;20.40;99.90;;;;;;5055721;28;20032;-89
2021/06/18 03:52:01;;;;;;;56.00;46.85;;;20.30;99.90;;;;;;5056455;28;20099;-89
2021/06/18 03:54:32;;;;;;;60.17;47.42;;;20.40;99.90;;;;;;5055898;28;20025;-87
2021/06/18 03:56:58;;;;;;;68.88;51.72;;;20.40;99.90;;;;;;5056458;28;20032;-87
2021/06/18 03:59:25;;;;;;;63.30;49.17;;;20.30;99.90;;;;;;5057378;28;20024;-89
2021/06/18 04:01:53;;;;;;;59.75;47.90;;;20.40;99.90;;;;;;5056980;28;20080;-89
2021/06/18 04:04:22;;;;;;;61.42;49.28;;;20.20;99.90;;;;;;5056318;28;20029;-88
2021/06/18 04:06:48;;;;;;;55.28;48.20;;;20.20;99.90;;;;;;5056193;28;20024;-89
2021/06/18 04:09:17;;;;;;;60.08;51.13;;;20.10;99.90;;;;;;5056307;28;20044;-89
2021/06/18 04:11:44;;;;;;;64.78;53.63;;;20.20;99.90;;;;;;5056473;28;20021;-89
2021/06/18 04:14:11;;;;;;;56.58;49.55;;;20.30;99.90;;;;;;5055756;28;20447;-89
2021/06/18 04:16:38;;;;;;;60.80;49.75;;;20.20;99.90;;;;;;5055756;28;20053;-89
2021/06/18 04:19:06;;;;;;;63.25;50.08;;;20.20;99.90;;;;;;5057014;28;20033;-89
2021/06/18 04:21:32;;;;;;;58.80;48.70;;;20.20;99.90;;;;;;5056778;28;20033;-88
2021/06/18 04:23:57;;;;;;;58.55;48.63;;;20.20;99.90;;;;;;5055886;28;20033;-88
2021/06/18 04:26:23;;;;;;;55.88;47.90;;;20.20;99.90;;;;;;5057682;28;20051;-87
2021/06/18 04:28:50;;;;;;;57.13;48.33;;;20.30;99.90;;;;;;5055773;28;20440;-87
2021/06/18 04:31:15;;;;;;;61.47;50.58;;;20.20;99.90;;;;;;5056674;28;20017;-88
2021/06/18 04:33:41;;;;;;;63.65;51.85;;;20.30;99.90;;;;;;5055516;28;20029;-89
2021/06/18 04:36:07;;;;;;;57.90;48.38;;;20.30;99.90;;;;;;5055354;28;20025;-89
2021/06/18 04:38:35;;;;;;;62.47;52.13;;;20.30;99.90;;;;;;5056004;28;20032;-88
2021/06/18 04:41:01;;;;;;;58.55;47.60;;;20.30;99.90;;;;;;5057332;28;20115;-88
2021/06/18 04:43:27;;;;;;;58.95;47.38;;;20.30;99.90;;;;;;5056637;28;20064;-87
2021/06/18 04:45:52;;;;;;;61.38;48.97;;;20.30;99.90;;;;;;5055370;28;20064;-88
2021/06/18 04:48:19;;;;;;;63.20;51.83;;;20.40;99.90;;;;;;5055367;28;20473;-88
2021/06/18 04:50:45;;;;;;;57.80;48.97;;;20.60;99.90;;;;;;5055438;28;20025;-87
2021/06/18 04:53:11;;;;;;;58.63;47.45;;;20.70;99.90;;;;;;5057772;28;20029;-90
2021/06/18 04:55:39;;;;;;;59.22;47.47;;;20.80;99.90;;;;;;5060852;28;20070;-90
2021/06/18 04:58:05;;;;;;;56.33;46.00;;;20.80;99.90;;;;;;5056688;28;20545;-89
2021/06/18 05:00:32;;;;;;;54.83;46.55;;;20.90;99.90;;;;;;5056500;28;20047;-89
2021/06/18 05:02:58;;;;;;;52.85;45.35;;;20.90;99.90;;;;;;5055094;28;20028;-89
2021/06/18 05:05:24;;;;;;;49.13;42.47;;;20.90;99.90;;;;;;5056322;28;20021;-89
2021/06/18 05:07:54;;;;;;;53.45;43.03;;;20.90;99.90;;;;;;5055226;28;20088;-89
2021/06/18 05:10:20;;;;;;;47.95;40.92;;;21.00;99.90;;;;;;5055068;28;20017;-89
2021/06/18 05:12:46;;;;;;;44.70;36.97;;;21.00;99.90;;;;;;5056876;28;20054;-89
2021/06/18 05:15:12;;;;;;;44.45;36.42;;;20.90;99.90;;;;;;5053508;28;20108;-89
2021/06/18 05:17:38;;;;;;;41.55;34.78;;;20.80;99.90;;;;;;5055680;28;20033;-89
2021/06/18 05:20:04;;;;;;;38.67;34.50;;;20.80;99.90;;;;;;5054199;28;20025;-89
2021/06/18 05:22:30;;;;;;;38.78;33.72;;;20.90;99.90;;;;;;5054522;28;20108;-89
2021/06/18 05:24:56;;;;;;;37.45;33.35;;;20.90;99.90;;;;;;5054915;28;20063;-89
2021/06/18 05:27:22;;;;;;;36.88;32.72;;;20.90;99.90;;;;;;5058116;28;20079;-88
2021/06/18 05:29:48;;;;;;;35.10;31.33;;;20.90;99.90;;;;;;5057991;28;20159;-89
2021/06/18 05:32:16;;;;;;;32.72;29.58;;;20.80;99.90;;;;;;5056333;28;20021;-89
2021/06/18 05:34:42;;;;;;;38.42;31.83;;;20.80;99.90;;;;;;5056923;28;20385;-89
2021/06/18 05:37:08;;;;;;;36.53;31.20;;;20.90;99.90;;;;;;5077978;28;20031;-89
2021/06/18 05:39:33;;;;;;;35.30;31.60;;;21.00;99.90;;;;;;5080387;28;20474;-90
2021/06/18 05:42:00;;;;;;;33.80;30.17;;;21.10;99.90;;;;;;5077841;28;20024;-90
2021/06/18 05:44:25;;;;;;;36.13;32.42;;;21.00;99.90;;;;;;5077624;28;20029;-88
2021/06/18 05:46:51;;;;;;;38.03;33.10;;;21.10;99.90;;;;;;5076459;28;20044;-89
2021/06/18 05:49:17;;;;;;;34.17;30.58;;;21.30;99.90;;;;;;5071953;28;20024;-88
2021/06/18 05:51:43;;;;;;;34.90;31.25;;;21.40;99.90;;;;;;5076615;28;20389;-89
2021/06/18 05:54:09;;;;;;;37.90;33.75;;;21.60;99.90;;;;;;5067954;28;20488;-89
2021/06/18 05:56:34;;;;;;;39.75;31.38;;;21.50;99.90;;;;;;5065950;28;20029;-89
2021/06/18 05:59:00;;;;;;;37.13;32.97;;;21.50;99.90;;;;;;5058264;28;20024;-88
2021/06/18 06:01:26;;;;;;;35.50;31.90;;;21.50;99.90;;;;;;5076080;28;20020;-89
2021/06/18 06:03:54;;;;;;;35.53;31.67;;;21.50;99.90;;;;;;5069181;28;20027;-89
2021/06/18 06:06:23;;;;;;;34.70;31.05;;;21.50;99.90;;;;;;5061362;28;20020;-89
2021/06/18 06:08:52;;;;;;;33.47;30.08;;;21.60;99.90;;;;;;5062597;28;20029;-87
2021/06/18 06:11:17;;;;;;;33.92;29.95;;;21.60;99.90;;;;;;5063938;28;20029;-89
2021/06/18 06:13:44;;;;;;;34.55;30.92;;;21.70;99.90;;;;;;5067981;28;20036;-88
2021/06/18 06:16:09;;;;;;;33.47;30.00;;;21.90;99.90;;;;;;5064415;28;20025;-87
2021/06/18 06:18:35;;;;;;;33.47;30.10;;;22.00;99.90;;;;;;5071098;28;20538;-86
2021/06/18 06:21:00;;;;;;;31.48;28.23;;;22.00;99.90;;;;;;5074393;28;20042;-86
2021/06/18 06:23:26;;;;;;;29.98;26.88;;;22.10;99.90;;;;;;5074975;28;20025;-86
2021/06/18 06:25:55;;;;;;;29.20;26.42;;;22.10;99.90;;;;;;5069057;28;20046;-86
2021/06/18 06:28:20;;;;;;;28.98;26.08;;;22.10;99.90;;;;;;5076837;28;20028;-88
2021/06/18 06:30:46;;;;;;;28.55;25.45;;;22.00;99.90;;;;;;5063406;28;20047;-87
2021/06/18 06:33:13;;;;;;;25.95;23.45;;;22.10;99.90;;;;;;5061311;28;20036;-88
2021/06/18 06:35:39;;;;;;;26.13;23.42;;;22.20;99.90;;;;;;5067364;28;20127;-88
2021/06/18 06:38:05;;;;;;;26.02;23.17;;;22.40;99.90;;;;;;5068453;28;20064;-88
2021/06/18 06:40:31;;;;;;;22.02;19.83;;;22.70;99.90;;;;;;5055013;28;20041;-88
2021/06/18 06:42:56;;;;;;;21.15;18.90;;;23.20;99.90;;;;;;5065252;28;20060;-87
2021/06/18 06:45:23;;;;;;;19.80;17.92;;;23.60;99.90;;;;;;5073105;28;20035;-88
2021/06/18 06:47:51;;;;;;;19.48;17.40;;;24.40;99.90;;;;;;5064867;28;20036;-87
2021/06/18 06:50:18;;;;;;;19.67;17.75;;;25.00;99.90;;;;;;5055756;28;20032;-87
2021/06/18 06:52:44;;;;;;;19.10;17.25;;;25.00;99.90;;;;;;5065479;28;20032;-88
2021/06/18 06:55:11;;;;;;;20.63;16.83;;;25.00;99.90;;;;;;5065015;28;20025;-88
2021/06/18 06:57:37;;;;;;;17.08;15.40;;;24.90;99.90;;;;;;5072366;28;20069;-88
2021/06/18 07:00:05;;;;;;;18.15;16.45;;;25.10;99.90;;;;;;5072343;28;20123;-87
2021/06/18 07:02:30;;;;;;;18.83;17.02;;;24.80;99.90;;;;;;5063002;28;20457;-88
2021/06/18 07:04:56;;;;;;;20.75;17.15;;;24.20;99.90;;;;;;5063003;28;20029;-87
2021/06/18 07:07:22;;;;;;;26.27;18.27;;;24.10;99.90;;;;;;5062631;28;20021;-87
2021/06/18 07:09:47;;;;;;;20.20;17.35;;;23.90;99.90;;;;;;5072201;28;20072;-87
2021/06/18 07:12:13;;;;;;;17.88;16.00;;;23.90;99.90;;;;;;5071736;28;20654;-87
2021/06/18 07:14:40;;;;;;;17.92;16.13;;;24.00;99.90;;;;;;5064027;28;20013;-88
2021/06/18 07:17:06;;;;;;;17.27;15.57;;;24.00;99.90;;;;;;5069591;28;20420;-86
2021/06/18 07:19:32;;;;;;;19.80;15.80;;;24.10;99.90;;;;;;5072110;28;20028;-87
2021/06/18 07:21:58;;;;;;;20.10;16.83;;;24.30;99.90;;;;;;5073461;28;20020;-87
2021/06/18 07:24:24;;;;;;;19.02;16.70;;;24.40;99.90;;;;;;5067234;28;20039;-86
2021/06/18 07:26:50;;;;;;;19.98;15.40;;;24.30;99.90;;;;;;5063451;28;20497;-87
2021/06/18 07:29:16;;;;;;;15.38;13.80;;;25.10;99.90;;;;;;5072805;28;20035;-87
2021/06/18 07:31:43;;;;;;;14.93;13.35;;;25.40;99.90;;;;;;5057609;28;20046;-88
2021/06/18 07:34:09;;;;;;;14.23;12.75;;;25.70;99.90;;;;;;5067460;28;20029;-87
2021/06/18 07:36:36;;;;;;;14.60;12.90;;;26.20;99.90;;;;;;5062160;28;20021;-87
2021/06/18 07:39:03;;;;;;;15.70;12.95;;;26.40;99.90;;;;;;5066468;28;20032;-87
2021/06/18 07:41:30;;;;;;;14.65;12.73;;;26.30;99.90;;;;;;5066374;28;20150;-86
2021/06/18 07:43:55;;;;;;;18.58;12.13;;;26.10;99.90;;;;;;5065788;28;20040;-86
2021/06/18 07:46:23;;;;;;;14.10;12.60;;;26.20;99.90;;;;;;5071162;28;20017;-86
2021/06/18 07:48:49;;;;;;;16.33;13.20;;;26.00;99.90;;;;;;5070916;28;20031;-86
2021/06/18 07:51:15;;;;;;;20.50;13.40;;;25.50;99.90;;;;;;5076791;28;20008;-87
2021/06/18 07:53:41;;;;;;;14.13;11.98;;;25.70;99.90;;;;;;5062565;28;20031;-86
2021/06/18 07:56:08;;;;;;;16.52;11.32;;;25.80;99.90;;;;;;5071045;28;20070;-86
2021/06/18 07:58:33;;;;;;;15.18;10.35;;;26.40;99.90;;;;;;5072025;28;20056;-86
2021/06/18 08:00:59;;;;;;;25.00;9.65;;;27.00;99.90;;;;;;5058845;28;20024;-87
2021/06/18 08:03:25;;;;;;;16.77;10.43;;;27.90;99.90;;;;;;5077647;28;20020;-87
2021/06/18 08:05:50;;;;;;;12.48;9.05;;;28.10;99.90;;;;;;5074315;28;20017;-85
2021/06/18 08:08:16;;;;;;;13.52;9.88;;;28.60;99.90;;;;;;5062267;28;20874;-86
2021/06/18 08:10:42;;;;;;;12.85;9.10;;;28.70;99.90;;;;;;5072175;28;20029;-85
2021/06/18 08:13:08;;;;;;;10.05;8.23;;;29.30;99.90;;;;;;5075950;28;20044;-86
2021/06/18 08:15:34;;;;;;;13.27;8.90;;;29.60;99.90;;;;;;5077483;28;20737;-83
2021/06/18 08:18:00;;;;;;;9.77;8.43;;;29.80;99.90;;;;;;5074857;28;20032;-83
2021/06/18 08:20:26;;;;;;;9.88;7.85;;;29.60;99.90;;;;;;5075135;28;20028;-84
2021/06/18 08:22:54;;;;;;;9.88;8.10;;;29.20;99.90;;;;;;5071344;28;20025;-87
2021/06/18 08:25:20;;;;;;;13.07;8.23;;;29.50;99.90;;;;;;5081247;28;20027;-84
2021/06/18 08:27:46;;;;;;;12.60;8.00;;;29.60;99.90;;;;;;5069509;28;20058;-84
2021/06/18 08:30:15;;;;;;;9.02;7.00;;;30.00;99.90;;;;;;5078730;28;20032;-84
2021/06/18 08:32:40;;;;;;;8.82;6.88;;;30.60;99.90;;;;;;5062113;28;20047;-86
2021/06/18 08:35:06;;;;;;;9.70;5.97;;;30.10;99.90;;;;;;5059918;28;20439;-86
2021/06/18 08:37:32;;;;;;;8.48;5.75;;;30.10;99.90;;;;;;5056329;28;20068;-85
2021/06/18 08:39:58;;;;;;;9.65;6.75;;;29.60;99.90;;;;;;5078172;28;20029;-86
2021/06/18 08:42:24;;;;;;;11.73;6.00;;;28.00;99.90;;;;;;5074526;28;20060;-88
2021/06/18 08:44:50;;;;;;;7.85;6.03;;;28.00;99.90;;;;;;5059392;28;20029;-87
2021/06/18 08:47:16;;;;;;;7.20;5.75;;;28.10;99.90;;;;;;5075257;28;20047;-87
2021/06/18 08:49:42;;;;;;;9.00;6.25;;;28.20;99.90;;;;;;5073093;28;20025;-87
2021/06/18 08:52:08;;;;;;;10.07;6.60;;;27.80;99.90;;;;;;5071318;28;20139;-87
2021/06/18 08:54:44;;;;;;;8.13;6.38;;;27.30;99.90;;;;;;5063499;28;20405;-85
2021/06/18 08:57:15;;;;;;;9.15;5.95;;;27.20;99.90;;;;;;5060204;28;20025;-85
2021/06/18 08:59:42;;;;;;;9.63;6.53;;;27.20;99.90;;;;;;5067511;28;20067;-86
2021/06/18 09:02:10;;;;;;;10.32;5.60;;;27.30;99.90;;;;;;5070852;28;20750;-85
2021/06/18 09:05:03;;;;;;;9.93;6.07;;;27.10;99.90;;;;;;5071602;28;20024;-86
2021/06/18 09:07:29;;;;;;;10.70;6.32;;;26.90;99.90;;;;;;5067602;28;20067;-86
2021/06/18 09:09:55;;;;;;;10.55;6.32;;;26.90;99.90;;;;;;5067481;28;20048;-86
2021/06/18 09:12:21;;;;;;;7.50;5.75;;;27.10;99.90;;;;;;5059799;28;20408;-85
2021/06/18 09:14:46;;;;;;;8.30;6.20;;;27.40;99.90;;;;;;5073519;28;20024;-86
2021/06/18 09:17:27;;;;;;;7.13;6.00;;;27.60;99.90;;;;;;5071343;28;20782;-87
2021/06/18 09:20:00;;;;;;;16.48;6.20;;;27.90;99.90;;;;;;5068838;28;20039;-84
2021/06/18 09:22:43;;;;;;;8.63;5.68;;;28.30;99.90;;;;;;5092065;28;20021;-86
2021/06/18 09:25:12;;;;;;;7.60;5.47;;;28.80;99.90;;;;;;5062995;28;20029;-84
2021/06/18 09:27:48;;;;;;;8.40;5.82;;;29.50;99.90;;;;;;5072863;28;20154;-86
2021/06/18 09:30:20;;;;;;;10.35;5.25;;;30.30;99.90;;;;;;5069878;28;20028;-86
2021/06/18 09:33:07;;;;;;;7.10;5.03;;;31.40;99.90;;;;;;5070652;28;20029;-87
2021/06/18 09:35:33;;;;;;;10.10;5.72;;;31.30;99.90;;;;;;5066754;28;20051;-85
2021/06/18 09:38:01;;;;;;;10.68;5.82;;;30.70;99.90;;;;;;5070958;28;20043;-86
2021/06/18 09:40:27;;;;;;;9.77;5.40;;;30.10;99.90;;;;;;5072250;28;20028;-84
2021/06/18 09:43:08;;;;;;;8.48;5.50;;;30.40;99.90;;;;;;5069194;28;20037;-86
2021/06/18 09:45:36;;;;;;;11.40;5.25;;;29.90;99.90;;;;;;5074893;28;20115;-86
2021/06/18 09:48:14;;;;;;;10.18;4.90;;;29.70;99.90;;;;;;5077207;28;20482;-84
2021/06/18 09:50:43;;;;;;;6.75;4.35;;;29.70;99.90;;;;;;5066528;28;20024;-86
2021/06/18 09:53:10;;;;;;;5.63;3.95;;;30.00;99.90;;;;;;5073486;28;20016;-86
2021/06/18 09:55:36;;;;;;;7.20;4.13;;;29.60;99.90;;;;;;5076436;28;20298;-85
2021/06/18 09:58:01;;;;;;;5.57;4.10;;;29.80;99.90;;;;;;5066271;28;20035;-86
2021/06/18 10:00:28;;;;;;;8.57;4.97;;;30.50;99.90;;;;;;5072353;28;20020;-86
2021/06/18 10:02:56;;;;;;;6.50;4.60;;;31.10;99.90;;;;;;5061629;28;20052;-85
2021/06/18 10:05:21;;;;;;;10.68;4.28;;;31.00;99.90;;;;;;5068985;28;20085;-85
2021/06/18 10:07:52;;;;;;;8.80;4.50;;;31.00;99.90;;;;;;5068336;28;20017;-89
2021/06/18 10:10:21;;;;;;;13.23;5.15;;;30.90;99.90;;;;;;5066971;28;20032;-86
2021/06/18 10:12:48;;;;;;;6.38;4.40;;;30.40;99.90;;;;;;5058296;28;20024;-85
2021/06/18 10:15:16;;;;;;;7.65;4.43;;;30.90;99.90;;;;;;5067554;28;20032;-85
2021/06/18 10:17:44;;;;;;;7.30;4.50;;;31.00;99.90;;;;;;5061244;28;20028;-85
2021/06/18 10:20:11;;;;;;;11.10;4.55;;;31.20;99.90;;;;;;5074189;28;20025;-86
2021/06/18 10:22:56;;;;;;;8.70;4.72;;;31.00;99.90;;;;;;5073577;28;20024;-87
2021/06/18 10:26:04;;;;;;;10.43;4.97;;;30.80;99.90;;;;;;5072188;28;20047;-84
2021/06/18 10:28:33;;;;;;;8.05;4.03;;;31.00;99.90;;;;;;5073468;28;20029;-88
2021/06/18 10:31:00;;;;;;;4.70;3.72;;;30.80;99.90;;;;;;5078491;28;20029;-83
2021/06/18 10:33:26;;;;;;;6.43;4.00;;;30.70;99.90;;;;;;5068633;28;20020;-84
2021/06/18 10:38:31;;;;;;;6.60;3.58;;;31.90;98.80;;;;;;5078536;28;20116;-88
2021/06/18 10:41:01;;;;;;;7.15;3.45;;;31.60;97.70;;;;;;5074631;28;20063;-88
2021/06/18 10:43:37;;;;;;;6.75;3.53;;;31.70;97.70;;;;;;5075878;28;20036;-87
2021/06/18 10:46:10;;;;;;;6.95;3.95;;;31.60;96.70;;;;;;5076583;28;20025;-85
2021/06/18 10:48:45;;;;;;;6.70;3.40;;;31.30;96.20;;;;;;5080888;28;20020;-83
2021/06/18 10:51:26;;;;;;;8.27;3.67;;;31.20;98.10;;;;;;5063827;28;20102;-80
2021/06/18 10:53:54;;;;;;;6.43;3.40;;;31.90;97.30;;;;;;5070777;28;20032;-84
2021/06/18 10:56:21;;;;;;;7.25;3.80;;;31.70;96.40;;;;;;5070634;28;20035;-83
2021/06/18 10:59:07;;;;;;;6.18;3.38;;;31.70;96.50;;;;;;5079199;28;20170;-82
2021/06/18 11:01:34;;;;;;;8.60;3.55;;;32.10;95.20;;;;;;5073255;28;20016;-82
2021/06/18 11:04:00;;;;;;;5.43;3.60;;;32.00;95.60;;;;;;5066547;28;20041;-83
2021/06/18 11:06:47;;;;;;;5.45;3.78;;;32.10;95.50;;;;;;5065554;28;20095;-84
2021/06/18 11:09:32;;;;;;;6.50;3.47;;;32.40;93.10;;;;;;5070111;28;20045;-84
2021/06/18 11:11:58;;;;;;;6.68;3.90;;;31.50;93.20;;;;;;5072269;28;20908;-86
2021/06/18 11:14:36;;;;;;;6.47;3.50;;;31.10;93.80;;;;;;5067658;28;20032;-85
2021/06/18 11:17:02;;;;;;;12.93;6.40;;;31.70;93.30;;;;;;5071290;28;20035;-85
2021/06/18 11:19:28;;;;;;;10.30;5.18;;;31.60;93.10;;;;;;5072518;28;20481;-84
2021/06/18 11:21:55;;;;;;;4.88;3.33;;;31.70;92.60;;;;;;5076539;28;20021;-85
2021/06/18 11:24:42;;;;;;;5.60;3.60;;;31.40;92.50;;;;;;5079354;28;20021;-86
2021/06/18 11:27:23;;;;;;;8.35;4.28;;;31.20;93.40;;;;;;5068398;28;20036;-88
2021/06/18 11:30:08;;;;;;;5.63;3.60;;;31.10;94.10;;;;;;5072085;28;20032;-89
2021/06/18 11:32:42;;;;;;;4.63;3.50;;;32.20;94.00;;;;;;5061898;28;20401;-87
2021/06/18 11:35:32;;;;;;;7.78;3.97;;;31.30;93.90;;;;;;5073513;28;20366;-82
2021/06/18 11:38:00;;;;;;;6.38;3.97;;;31.30;92.60;;;;;;5070031;28;20119;-81
2021/06/18 11:40:28;;;;;;;7.43;3.50;;;31.80;93.10;;;;;;5074962;28;20488;-82
2021/06/18 11:42:54;;;;;;;4.57;3.47;;;31.50;92.20;;;;;;5075783;28;20111;-79
2021/06/18 11:45:20;;;;;;;7.68;4.00;;;31.70;92.00;;;;;;5062003;28;20044;-82
2021/06/18 11:47:47;;;;;;;7.35;3.90;;;31.70;91.90;;;;;;5077734;28;20028;-81
2021/06/18 11:50:12;;;;;;;6.40;3.75;;;31.70;92.00;;;;;;5069641;28;20021;-83
2021/06/18 11:52:38;;;;;;;5.07;3.67;;;31.60;91.00;;;;;;5075086;28;20033;-83
2021/06/18 11:55:04;;;;;;;6.15;3.60;;;31.60;91.90;;;;;;5064544;28;20043;-83
2021/06/18 11:57:35;;;;;;;5.07;3.47;;;31.50;91.20;;;;;;5062877;28;20025;-82
2021/06/18 12:00:01;;;;;;;6.55;3.70;;;31.20;91.90;;;;;;5070253;28;20132;-82
2021/06/18 12:02:32;;;;;;;6.35;3.95;;;31.00;92.40;;;;;;5073972;28;20048;-84
2021/06/18 12:05:04;;;;;;;6.32;3.38;;;31.20;91.80;;;;;;5078870;28;20036;-83
2021/06/18 12:07:34;;;;;;;5.30;3.63;;;31.80;90.50;;;;;;5081210;28;20021;-85
2021/06/18 12:10:01;;;;;;;4.95;3.70;;;31.60;91.40;;;;;;5079847;28;20032;-86
2021/06/18 12:12:27;;;;;;;7.15;3.92;;;31.50;91.70;;;;;;5069312;28;20021;-83
2021/06/18 12:14:57;;;;;;;6.50;3.83;;;31.60;91.30;;;;;;5076154;28;20481;-85
2021/06/18 12:17:24;;;;;;;4.30;3.90;;;31.90;91.20;;;;;;5071532;28;20029;-83
2021/06/18 12:19:50;;;;;;;5.03;4.00;;;31.70;90.80;;;;;;5068251;28;20051;-82
2021/06/18 12:22:23;;;;;;;5.25;4.10;;;31.90;91.10;;;;;;5068409;28;20434;-82
2021/06/18 12:24:55;;;;;;;5.28;3.80;;;31.70;91.20;;;;;;5078693;28;20028;-83
2021/06/18 12:27:23;;;;;;;4.15;3.38;;;32.00;91.40;;;;;;5074993;28;20055;-84
2021/06/18 12:29:55;;;;;;;7.75;3.88;;;32.40;90.90;;;;;;5072972;28;20033;-83
2021/06/18 12:32:24;;;;;;;5.68;3.40;;;32.60;89.70;;;;;;5063329;28;20021;-83
2021/06/18 12:34:52;;;;;;;4.85;3.40;;;32.80;88.00;;;;;;5074984;28;20532;-84
2021/06/18 12:37:21;;;;;;;6.35;3.60;;;32.80;88.00;;;;;;5062591;28;20090;-83
2021/06/18 12:39:59;;;;;;;5.60;3.97;;;32.80;88.40;;;;;;5061531;28;20066;-81
2021/06/18 12:42:39;;;;;;;6.90;3.65;;;32.40;90.20;;;;;;5064584;28;20032;-82